sensor_id;sensor_type;location;lat;lon;timestamp;pressure;altitude;pressure_sealevel;temperature;humidity
1652;BME280;823;49.028;8.454;2022-08-21T00:04:36;100503.94;;;22.73;41.51
1652;BME280;823;49.028;8.454;2022-08-21T00:09:37;100509.41;;;22.60;42.38
1652;BME280;823;49.028;8.454;2022-08-21T00:14:37;100497.50;;;22.66;41.98
1652;BME280;823;49.028;8.454;2022-08-21T00:19:38;100509.28;;;22.62;42.23
1652;BME280;823;49.028;8.454;2022-08-21T00:24:38;100503.22;;;22.50;43.47
1652;BME280;823;49.028;8.454;2022-08-21T00:29:38;100489.63;;;22.34;43.46
1652;BME280;823;49.028;8.454;2022-08-21T00:34:39;100484.44;;;22.32;43.28
1652;BME280;823;49.028;8.454;2022-08-21T00:39:39;100484.22;;;22.35;43.18
1652;BME280;823;49.028;8.454;2022-08-21T00:44:43;100477.63;;;22.30;43.22
1652;BME280;823;49.028;8.454;2022-08-21T00:49:44;100475.50;;;22.12;43.70
1652;BME280;823;49.028;8.454;2022-08-21T00:54:45;100474.56;;;22.13;43.92
1652;BME280;823;49.028;8.454;2022-08-21T00:59:49;100476.22;;;22.03;43.98
1652;BME280;823;49.028;8.454;2022-08-21T01:04:51;100476.34;;;22.01;44.03
1652;BME280;823;49.028;8.454;2022-08-21T01:09:51;100482.75;;;21.76;44.76
1652;BME280;823;49.028;8.454;2022-08-21T01:14:52;100480.13;;;21.65;45.89
1652;BME280;823;49.028;8.454;2022-08-21T01:19:56;100481.06;;;21.64;45.14
1652;BME280;823;49.028;8.454;2022-08-21T01:24:57;100477.50;;;21.53;46.07
1652;BME280;823;49.028;8.454;2022-08-21T01:30:04;100476.53;;;21.54;45.51
1652;BME280;823;49.028;8.454;2022-08-21T01:35:09;100472.94;;;21.55;45.27
1652;BME280;823;49.028;8.454;2022-08-21T01:40:11;100478.53;;;21.51;45.37
1652;BME280;823;49.028;8.454;2022-08-21T01:45:13;100476.00;;;21.26;46.25
1652;BME280;823;49.028;8.454;2022-08-21T01:50:16;100477.69;;;21.27;45.72
1652;BME280;823;49.028;8.454;2022-08-21T01:55:18;100476.94;;;21.14;46.41
1652;BME280;823;49.028;8.454;2022-08-21T02:00:21;100472.28;;;21.06;46.27
1652;BME280;823;49.028;8.454;2022-08-21T02:05:22;100475.53;;;21.10;46.21
1652;BME280;823;49.028;8.454;2022-08-21T02:10:26;100469.16;;;21.13;46.12
1652;BME280;823;49.028;8.454;2022-08-21T02:15:28;100464.69;;;20.90;46.78
1652;BME280;823;49.028;8.454;2022-08-21T02:20:39;100457.53;;;20.92;46.76
1652;BME280;823;49.028;8.454;2022-08-21T02:25:40;100456.94;;;20.89;46.71
1652;BME280;823;49.028;8.454;2022-08-21T02:30:44;100457.53;;;20.81;47.36
1652;BME280;823;49.028;8.454;2022-08-21T02:35:47;100453.44;;;20.77;47.21
1652;BME280;823;49.028;8.454;2022-08-21T02:40:49;100451.25;;;20.71;47.42
1652;BME280;823;49.028;8.454;2022-08-21T02:45:51;100450.69;;;20.54;47.39
1652;BME280;823;49.028;8.454;2022-08-21T02:50:57;100451.16;;;20.48;47.73
1652;BME280;823;49.028;8.454;2022-08-21T02:56:00;100449.47;;;20.47;47.78
1652;BME280;823;49.028;8.454;2022-08-21T03:01:01;100451.03;;;20.50;47.46
1652;BME280;823;49.028;8.454;2022-08-21T03:06:03;100453.50;;;20.40;47.61
1652;BME280;823;49.028;8.454;2022-08-21T03:11:04;100452.28;;;20.33;48.22
1652;BME280;823;49.028;8.454;2022-08-21T03:16:05;100452.88;;;20.36;47.53
1652;BME280;823;49.028;8.454;2022-08-21T03:21:06;100452.28;;;20.33;47.74
1652;BME280;823;49.028;8.454;2022-08-21T03:26:07;100439.19;;;20.20;48.20
1652;BME280;823;49.028;8.454;2022-08-21T03:31:07;100463.81;;;20.19;48.02
1652;BME280;823;49.028;8.454;2022-08-21T03:36:09;100462.06;;;20.06;48.20
1652;BME280;823;49.028;8.454;2022-08-21T03:41:10;100465.44;;;19.96;48.59
1652;BME280;823;49.028;8.454;2022-08-21T03:46:10;100455.25;;;20.04;48.37
1652;BME280;823;49.028;8.454;2022-08-21T03:51:10;100462.81;;;19.96;48.53
1652;BME280;823;49.028;8.454;2022-08-21T03:56:11;100459.69;;;19.90;48.67
1652;BME280;823;49.028;8.454;2022-08-21T04:01:11;100468.84;;;19.72;48.66
1652;BME280;823;49.028;8.454;2022-08-21T04:06:12;100471.47;;;19.72;49.15
1652;BME280;823;49.028;8.454;2022-08-21T04:11:13;100472.19;;;19.74;49.10
1652;BME280;823;49.028;8.454;2022-08-21T04:16:14;100480.56;;;19.79;48.43
1652;BME280;823;49.028;8.454;2022-08-21T04:21:15;100486.44;;;19.70;48.60
1652;BME280;823;49.028;8.454;2022-08-21T04:26:15;100489.75;;;19.61;49.21
1652;BME280;823;49.028;8.454;2022-08-21T04:31:16;100489.22;;;19.55;49.71
1652;BME280;823;49.028;8.454;2022-08-21T04:36:17;100486.06;;;19.50;49.42
1652;BME280;823;49.028;8.454;2022-08-21T04:41:17;100502.72;;;19.49;49.25
1652;BME280;823;49.028;8.454;2022-08-21T04:46:18;100499.91;;;19.52;49.36
1652;BME280;823;49.028;8.454;2022-08-21T04:51:31;100504.31;;;19.52;49.00
1652;BME280;823;49.028;8.454;2022-08-21T04:56:34;100512.19;;;19.52;48.95
1652;BME280;823;49.028;8.454;2022-08-21T05:01:36;100518.81;;;19.45;49.21
1652;BME280;823;49.028;8.454;2022-08-21T05:06:39;100518.59;;;19.48;49.79
1652;BME280;823;49.028;8.454;2022-08-21T05:11:41;100519.00;;;19.54;49.56
1652;BME280;823;49.028;8.454;2022-08-21T05:16:43;100523.94;;;19.59;49.53
1652;BME280;823;49.028;8.454;2022-08-21T05:21:45;100529.69;;;19.64;49.70
1652;BME280;823;49.028;8.454;2022-08-21T05:26:47;100538.13;;;19.82;48.60
1652;BME280;823;49.028;8.454;2022-08-21T05:31:48;100525.53;;;19.87;48.85
1652;BME280;823;49.028;8.454;2022-08-21T05:36:48;100522.56;;;19.92;48.37
1652;BME280;823;49.028;8.454;2022-08-21T05:41:48;100529.91;;;20.00;48.97
1652;BME280;823;49.028;8.454;2022-08-21T05:46:49;100521.09;;;20.01;48.09
1652;BME280;823;49.028;8.454;2022-08-21T05:51:50;100525.56;;;20.12;47.25
1652;BME280;823;49.028;8.454;2022-08-21T05:56:50;100519.72;;;20.32;47.39
1652;BME280;823;49.028;8.454;2022-08-21T06:01:50;100515.38;;;20.44;47.09
1652;BME280;823;49.028;8.454;2022-08-21T06:06:52;100521.09;;;20.62;46.70
1652;BME280;823;49.028;8.454;2022-08-21T06:11:53;100525.00;;;20.81;46.03
1652;BME280;823;49.028;8.454;2022-08-21T06:16:53;100524.88;;;21.06;46.18
1652;BME280;823;49.028;8.454;2022-08-21T06:21:53;100530.78;;;21.21;45.89
1652;BME280;823;49.028;8.454;2022-08-21T06:26:54;100529.00;;;21.44;45.56
1652;BME280;823;49.028;8.454;2022-08-21T06:31:54;100515.03;;;21.67;45.14
1652;BME280;823;49.028;8.454;2022-08-21T06:36:56;100527.94;;;22.04;44.64
1652;BME280;823;49.028;8.454;2022-08-21T06:41:56;100528.28;;;22.22;43.86
1652;BME280;823;49.028;8.454;2022-08-21T06:46:56;100526.81;;;22.52;42.86
1652;BME280;823;49.028;8.454;2022-08-21T06:51:57;100530.44;;;22.72;43.27
1652;BME280;823;49.028;8.454;2022-08-21T06:56:57;100526.31;;;22.90;41.92
1652;BME280;823;49.028;8.454;2022-08-21T07:01:59;100527.88;;;23.14;42.32
1652;BME280;823;49.028;8.454;2022-08-21T07:06:59;100523.94;;;23.29;41.57
1652;BME280;823;49.028;8.454;2022-08-21T07:12:00;100518.13;;;23.57;40.88
1652;BME280;823;49.028;8.454;2022-08-21T07:17:00;100520.44;;;23.81;40.55
1652;BME280;823;49.028;8.454;2022-08-21T07:22:01;100514.44;;;24.10;39.17
1652;BME280;823;49.028;8.454;2022-08-21T07:27:02;100513.06;;;24.25;38.88
1652;BME280;823;49.028;8.454;2022-08-21T07:32:03;100506.41;;;24.41;39.23
1652;BME280;823;49.028;8.454;2022-08-21T07:37:04;100509.78;;;24.62;38.21
1652;BME280;823;49.028;8.454;2022-08-21T07:42:04;100505.75;;;24.78;38.17
1652;BME280;823;49.028;8.454;2022-08-21T07:47:04;100502.94;;;24.89;37.13
1652;BME280;823;49.028;8.454;2022-08-21T07:52:05;100508.50;;;24.96;36.95
1652;BME280;823;49.028;8.454;2022-08-21T07:57:06;100506.00;;;25.04;36.81
1652;BME280;823;49.028;8.454;2022-08-21T08:02:06;100502.63;;;25.22;36.50
1652;BME280;823;49.028;8.454;2022-08-21T08:07:06;100495.63;;;25.40;36.99
1652;BME280;823;49.028;8.454;2022-08-21T08:12:07;100489.72;;;25.56;36.34
1652;BME280;823;49.028;8.454;2022-08-21T08:17:07;100493.09;;;25.76;35.27
1652;BME280;823;49.028;8.454;2022-08-21T08:22:18;100486.78;;;25.87;34.60
1652;BME280;823;49.028;8.454;2022-08-21T08:27:20;100487.53;;;25.97;35.59
1652;BME280;823;49.028;8.454;2022-08-21T08:32:20;100483.91;;;25.98;34.74
1652;BME280;823;49.028;8.454;2022-08-21T08:37:20;100476.50;;;26.30;34.60
1652;BME280;823;49.028;8.454;2022-08-21T08:42:30;100465.97;;;26.20;33.55
1652;BME280;823;49.028;8.454;2022-08-21T08:47:35;100467.84;;;26.46;32.92
1652;BME280;823;49.028;8.454;2022-08-21T08:52:41;100464.97;;;26.57;33.04
1652;BME280;823;49.028;8.454;2022-08-21T08:57:47;100452.75;;;26.64;33.21
1652;BME280;823;49.028;8.454;2022-08-21T09:02:53;100449.06;;;26.75;32.38
1652;BME280;823;49.028;8.454;2022-08-21T09:18:32;100430.81;;;27.07;33.11
1652;BME280;823;49.028;8.454;2022-08-21T09:24:00;100418.72;;;27.12;32.14
1652;BME280;823;49.028;8.454;2022-08-21T09:29:01;100420.13;;;27.25;31.35
1652;BME280;823;49.028;8.454;2022-08-21T09:34:11;100408.50;;;27.52;30.82
1652;BME280;823;49.028;8.454;2022-08-21T09:39:29;100401.88;;;27.64;30.42
1652;BME280;823;49.028;8.454;2022-08-21T09:44:36;100404.94;;;27.86;30.31
1652;BME280;823;49.028;8.454;2022-08-21T09:49:43;100402.09;;;27.88;29.45
1652;BME280;823;49.028;8.454;2022-08-21T09:54:45;100399.97;;;27.99;28.63
1652;BME280;823;49.028;8.454;2022-08-21T09:59:46;100398.34;;;28.07;28.56
1652;BME280;823;49.028;8.454;2022-08-21T10:05:20;100396.34;;;28.25;28.38
1652;BME280;823;49.028;8.454;2022-08-21T10:10:26;100399.84;;;28.26;27.78
1652;BME280;823;49.028;8.454;2022-08-21T10:21:04;100385.22;;;28.63;27.68
1652;BME280;823;49.028;8.454;2022-08-21T10:31:36;100371.25;;;29.17;27.48
1652;BME280;823;49.028;8.454;2022-08-21T10:36:39;100374.25;;;29.14;26.07
1652;BME280;823;49.028;8.454;2022-08-21T10:41:47;100361.28;;;29.11;25.07
1652;BME280;823;49.028;8.454;2022-08-21T10:46:54;100362.84;;;29.36;26.23
1652;BME280;823;49.028;8.454;2022-08-21T11:03:02;100352.06;;;29.61;25.58
1652;BME280;823;49.028;8.454;2022-08-21T11:08:13;100348.59;;;29.84;25.13
1652;BME280;823;49.028;8.454;2022-08-21T11:13:20;100339.53;;;29.93;24.98
1652;BME280;823;49.028;8.454;2022-08-21T11:18:41;100326.91;;;30.10;24.96
1652;BME280;823;49.028;8.454;2022-08-21T11:23:53;100334.22;;;30.31;25.16
1652;BME280;823;49.028;8.454;2022-08-21T11:29:03;100320.94;;;30.23;25.47
1652;BME280;823;49.028;8.454;2022-08-21T11:55:09;100296.97;;;30.53;24.13
1652;BME280;823;49.028;8.454;2022-08-21T12:00:36;100300.50;;;30.68;23.07
1652;BME280;823;49.028;8.454;2022-08-21T12:05:41;100308.22;;;30.63;24.09
1652;BME280;823;49.028;8.454;2022-08-21T12:11:08;100303.41;;;30.59;22.40
1652;BME280;823;49.028;8.454;2022-08-21T12:16:15;100276.63;;;30.67;23.69
1652;BME280;823;49.028;8.454;2022-08-21T12:21:27;100267.47;;;30.54;23.00
1652;BME280;823;49.028;8.454;2022-08-21T12:26:48;100271.72;;;31.00;22.21
1652;BME280;823;49.028;8.454;2022-08-21T12:32:42;100281.84;;;31.20;22.08
1652;BME280;823;49.028;8.454;2022-08-21T12:42:37;100267.19;;;31.37;21.71
1652;BME280;823;49.028;8.454;2022-08-21T12:47:56;100270.59;;;31.46;21.14
1652;BME280;823;49.028;8.454;2022-08-21T12:53:04;100262.88;;;31.58;20.43
1652;BME280;823;49.028;8.454;2022-08-21T12:58:05;100267.72;;;31.48;20.42
1652;BME280;823;49.028;8.454;2022-08-21T13:03:06;100262.63;;;31.31;20.61
1652;BME280;823;49.028;8.454;2022-08-21T13:08:09;100253.78;;;31.52;20.44
1652;BME280;823;49.028;8.454;2022-08-21T13:13:17;100255.88;;;31.57;20.15
1652;BME280;823;49.028;8.454;2022-08-21T13:18:27;100250.41;;;31.44;19.96
1652;BME280;823;49.028;8.454;2022-08-21T13:23:29;100254.13;;;31.64;19.65
1652;BME280;823;49.028;8.454;2022-08-21T13:28:34;100244.31;;;31.71;19.97
1652;BME280;823;49.028;8.454;2022-08-21T13:33:38;100245.56;;;31.75;20.43
1652;BME280;823;49.028;8.454;2022-08-21T13:38:41;100235.91;;;31.74;19.68
1652;BME280;823;49.028;8.454;2022-08-21T13:43:48;100233.25;;;32.03;19.27
1652;BME280;823;49.028;8.454;2022-08-21T13:48:49;100226.38;;;32.22;19.63
1652;BME280;823;49.028;8.454;2022-08-21T13:53:50;100231.91;;;31.92;20.36
1652;BME280;823;49.028;8.454;2022-08-21T13:58:54;100223.75;;;32.00;19.84
1652;BME280;823;49.028;8.454;2022-08-21T14:04:02;100219.81;;;31.96;19.89
1652;BME280;823;49.028;8.454;2022-08-21T14:09:13;100220.28;;;32.06;20.38
1652;BME280;823;49.028;8.454;2022-08-21T14:14:24;100216.59;;;32.07;19.14
1652;BME280;823;49.028;8.454;2022-08-21T14:19:34;100208.16;;;32.11;19.62
1652;BME280;823;49.028;8.454;2022-08-21T14:24:39;100205.03;;;32.00;19.71
1652;BME280;823;49.028;8.454;2022-08-21T14:29:41;100198.88;;;32.06;19.66
1652;BME280;823;49.028;8.454;2022-08-21T14:34:43;100192.91;;;32.04;19.68
1652;BME280;823;49.028;8.454;2022-08-21T14:39:43;100193.88;;;31.97;20.09
1652;BME280;823;49.028;8.454;2022-08-21T14:44:44;100176.16;;;31.89;20.19
1652;BME280;823;49.028;8.454;2022-08-21T14:49:45;100179.94;;;32.01;20.00
1652;BME280;823;49.028;8.454;2022-08-21T14:54:45;100167.63;;;32.14;19.61
1652;BME280;823;49.028;8.454;2022-08-21T14:59:45;100163.81;;;32.23;19.06
1652;BME280;823;49.028;8.454;2022-08-21T15:04:46;100170.88;;;32.37;19.19
1652;BME280;823;49.028;8.454;2022-08-21T15:09:46;100163.81;;;32.23;19.72
1652;BME280;823;49.028;8.454;2022-08-21T15:14:47;100160.72;;;32.19;19.75
1652;BME280;823;49.028;8.454;2022-08-21T15:19:47;100159.16;;;32.03;20.09
1652;BME280;823;49.028;8.454;2022-08-21T15:24:47;100160.78;;;31.98;19.80
1652;BME280;823;49.028;8.454;2022-08-21T15:29:48;100155.78;;;31.88;19.65
1652;BME280;823;49.028;8.454;2022-08-21T15:34:50;100158.00;;;31.84;19.76
1652;BME280;823;49.028;8.454;2022-08-21T15:39:51;100160.13;;;31.61;20.42
1652;BME280;823;49.028;8.454;2022-08-21T15:44:53;100153.09;;;31.60;20.32
1652;BME280;823;49.028;8.454;2022-08-21T15:49:55;100148.59;;;31.60;21.01
1652;BME280;823;49.028;8.454;2022-08-21T15:54:55;100142.38;;;31.53;20.12
1652;BME280;823;49.028;8.454;2022-08-21T15:59:58;100138.44;;;31.49;20.53
1652;BME280;823;49.028;8.454;2022-08-21T16:05:05;100138.56;;;31.40;20.12
1652;BME280;823;49.028;8.454;2022-08-21T16:10:06;100136.66;;;31.34;19.73
1652;BME280;823;49.028;8.454;2022-08-21T16:15:08;100135.31;;;31.45;20.23
1652;BME280;823;49.028;8.454;2022-08-21T16:20:12;100140.44;;;31.47;19.63
1652;BME280;823;49.028;8.454;2022-08-21T16:25:14;100134.50;;;31.45;20.63
1652;BME280;823;49.028;8.454;2022-08-21T16:30:15;100137.72;;;31.40;19.80
1652;BME280;823;49.028;8.454;2022-08-21T16:35:18;100133.03;;;31.20;19.61
1652;BME280;823;49.028;8.454;2022-08-21T16:40:21;100119.56;;;31.07;19.40
1652;BME280;823;49.028;8.454;2022-08-21T16:45:26;100121.09;;;31.16;20.34
1652;BME280;823;49.028;8.454;2022-08-21T16:50:26;100109.31;;;30.89;19.40
1652;BME280;823;49.028;8.454;2022-08-21T16:55:27;100117.97;;;30.91;19.21
1652;BME280;823;49.028;8.454;2022-08-21T17:00:27;100111.13;;;31.03;19.08
1652;BME280;823;49.028;8.454;2022-08-21T17:05:28;100107.09;;;30.93;19.60
1652;BME280;823;49.028;8.454;2022-08-21T17:10:28;100103.59;;;30.92;19.52
1652;BME280;823;49.028;8.454;2022-08-21T17:15:34;100108.09;;;30.91;20.13
1652;BME280;823;49.028;8.454;2022-08-21T17:20:35;100119.09;;;30.82;19.94
1652;BME280;823;49.028;8.454;2022-08-21T17:25:37;100111.47;;;30.79;20.05
1652;BME280;823;49.028;8.454;2022-08-21T17:30:40;100111.53;;;30.64;20.17
1652;BME280;823;49.028;8.454;2022-08-21T17:35:45;100099.97;;;30.56;19.98
1652;BME280;823;49.028;8.454;2022-08-21T17:40:47;100106.16;;;30.42;19.67
1652;BME280;823;49.028;8.454;2022-08-21T17:45:48;100107.69;;;30.36;20.40
1652;BME280;823;49.028;8.454;2022-08-21T17:50:49;100110.84;;;30.25;21.64
1652;BME280;823;49.028;8.454;2022-08-21T17:55:50;100108.84;;;30.12;21.42
1652;BME280;823;49.028;8.454;2022-08-21T18:00:50;100110.34;;;30.00;22.00
1652;BME280;823;49.028;8.454;2022-08-21T18:05:51;100110.50;;;29.83;24.21
1652;BME280;823;49.028;8.454;2022-08-21T18:10:54;100111.69;;;29.66;26.56
1652;BME280;823;49.028;8.454;2022-08-21T18:15:55;100115.03;;;29.45;25.29
1652;BME280;823;49.028;8.454;2022-08-21T18:20:56;100116.56;;;29.24;23.94
1652;BME280;823;49.028;8.454;2022-08-21T18:25:57;100114.53;;;29.03;26.57
1652;BME280;823;49.028;8.454;2022-08-21T18:30:57;100130.22;;;28.75;30.46
1652;BME280;823;49.028;8.454;2022-08-21T18:35:58;100124.88;;;28.43;31.47
1652;BME280;823;49.028;8.454;2022-08-21T18:40:58;100142.44;;;28.13;32.71
1652;BME280;823;49.028;8.454;2022-08-21T18:46:00;100144.34;;;27.79;32.70
1652;BME280;823;49.028;8.454;2022-08-21T18:51:01;100149.84;;;27.53;34.27
1652;BME280;823;49.028;8.454;2022-08-21T18:56:02;100149.81;;;27.20;33.71
1652;BME280;823;49.028;8.454;2022-08-21T19:01:03;100151.28;;;26.98;34.76
1652;BME280;823;49.028;8.454;2022-08-21T19:06:03;100154.47;;;26.59;34.94
1652;BME280;823;49.028;8.454;2022-08-21T19:11:04;100146.50;;;26.50;37.00
1652;BME280;823;49.028;8.454;2022-08-21T19:16:05;100145.25;;;26.28;36.79
1652;BME280;823;49.028;8.454;2022-08-21T19:21:06;100162.78;;;26.21;36.16
1652;BME280;823;49.028;8.454;2022-08-21T19:26:07;100160.38;;;26.10;36.30
1652;BME280;823;49.028;8.454;2022-08-21T19:31:12;100168.41;;;26.00;35.92
1652;BME280;823;49.028;8.454;2022-08-21T19:36:13;100173.16;;;25.88;36.59
1652;BME280;823;49.028;8.454;2022-08-21T19:41:16;100175.28;;;25.84;36.69
1652;BME280;823;49.028;8.454;2022-08-21T19:46:22;100174.41;;;25.76;37.01
1652;BME280;823;49.028;8.454;2022-08-21T19:51:23;100175.31;;;25.66;36.48
1652;BME280;823;49.028;8.454;2022-08-21T19:56:26;100173.81;;;25.64;36.82
1652;BME280;823;49.028;8.454;2022-08-21T20:01:27;100174.75;;;25.55;36.52
1652;BME280;823;49.028;8.454;2022-08-21T20:06:28;100180.06;;;25.55;35.64
1652;BME280;823;49.028;8.454;2022-08-21T20:11:32;100177.78;;;25.42;36.57
1652;BME280;823;49.028;8.454;2022-08-21T20:16:35;100184.91;;;25.41;36.13
1652;BME280;823;49.028;8.454;2022-08-21T20:21:36;100177.41;;;25.37;35.93
1652;BME280;823;49.028;8.454;2022-08-21T20:26:38;100176.69;;;25.16;37.65
1652;BME280;823;49.028;8.454;2022-08-21T20:31:39;100172.84;;;25.11;36.51
1652;BME280;823;49.028;8.454;2022-08-21T20:36:39;100176.63;;;25.08;36.75
1652;BME280;823;49.028;8.454;2022-08-21T20:41:40;100177.50;;;24.99;37.76
1652;BME280;823;49.028;8.454;2022-08-21T20:46:40;100172.69;;;24.94;37.17
1652;BME280;823;49.028;8.454;2022-08-21T20:51:44;100172.13;;;24.91;35.83
1652;BME280;823;49.028;8.454;2022-08-21T21:07:19;100187.00;;;24.74;36.26
1652;BME280;823;49.028;8.454;2022-08-21T21:12:27;100179.38;;;24.71;36.25
1652;BME280;823;49.028;8.454;2022-08-21T21:17:40;100184.56;;;24.62;35.21
1652;BME280;823;49.028;8.454;2022-08-21T21:22:50;100184.72;;;24.51;35.72
1652;BME280;823;49.028;8.454;2022-08-21T21:27:57;100178.16;;;24.55;35.38
1652;BME280;823;49.028;8.454;2022-08-21T21:33:00;100190.69;;;24.53;35.96
1652;BME280;823;49.028;8.454;2022-08-21T21:38:07;100189.59;;;24.46;35.59
1652;BME280;823;49.028;8.454;2022-08-21T21:48:59;100189.91;;;24.43;35.54
1652;BME280;823;49.028;8.454;2022-08-21T22:00:07;100193.59;;;24.22;36.15
1652;BME280;823;49.028;8.454;2022-08-21T22:10:47;100188.06;;;24.06;36.11
1652;BME280;823;49.028;8.454;2022-08-21T22:15:51;100193.94;;;24.00;36.31
1652;BME280;823;49.028;8.454;2022-08-21T22:26:04;100190.06;;;23.94;37.23
1652;BME280;823;49.028;8.454;2022-08-21T22:31:20;100193.69;;;23.93;35.85
1652;BME280;823;49.028;8.454;2022-08-21T22:36:21;100196.00;;;23.86;36.54
1652;BME280;823;49.028;8.454;2022-08-21T22:41:28;100193.38;;;23.86;37.04
1652;BME280;823;49.028;8.454;2022-08-21T22:46:34;100200.63;;;23.64;37.47
1652;BME280;823;49.028;8.454;2022-08-21T22:51:41;100207.59;;;23.56;37.58
1652;BME280;823;49.028;8.454;2022-08-21T22:56:44;100199.25;;;23.41;38.00
1652;BME280;823;49.028;8.454;2022-08-21T23:01:53;100207.88;;;23.23;38.29
1652;BME280;823;49.028;8.454;2022-08-21T23:07:01;100214.44;;;23.08;39.13
1652;BME280;823;49.028;8.454;2022-08-21T23:12:22;100206.81;;;23.05;38.55
1652;BME280;823;49.028;8.454;2022-08-21T23:17:51;100201.06;;;22.80;40.04
1652;BME280;823;49.028;8.454;2022-08-21T23:23:15;100205.47;;;22.70;40.09
1652;BME280;823;49.028;8.454;2022-08-21T23:34:19;100204.38;;;22.72;40.54
1652;BME280;823;49.028;8.454;2022-08-21T23:45:10;100214.06;;;22.72;40.26
1652;BME280;823;49.028;8.454;2022-08-21T23:50:35;100204.63;;;22.69;40.51
